sensor_id;sensor_type;location;lat;lon;timestamp;P1;durP1;ratioP1;P2;durP2;ratioP2
32236;SDS011;18726;44.732;10.550;2024-01-06T00:00:07;7.65;;;7.05;;
32236;SDS011;18726;44.732;10.550;2024-01-06T00:03:17;7.15;;;6.65;;
32236;SDS011;18726;44.732;10.550;2024-01-06T00:06:21;6.93;;;6.15;;
32236;SDS011;18726;44.732;10.550;2024-01-06T00:09:24;6.78;;;6.28;;
32236;SDS011;18726;44.732;10.550;2024-01-06T00:12:28;6.57;;;6.07;;
32236;SDS011;18726;44.732;10.550;2024-01-06T00:15:32;5.90;;;5.45;;
32236;SDS011;18726;44.732;10.550;2024-01-06T00:18:35;6.80;;;6.20;;
32236;SDS011;18726;44.732;10.550;2024-01-06T00:21:38;6.90;;;6.40;;
32236;SDS011;18726;44.732;10.550;2024-01-06T00:24:42;5.80;;;5.40;;
32236;SDS011;18726;44.732;10.550;2024-01-06T00:27:45;6.25;;;5.60;;
32236;SDS011;18726;44.732;10.550;2024-01-06T00:30:49;6.30;;;5.80;;
32236;SDS011;18726;44.732;10.550;2024-01-06T00:33:52;6.03;;;5.63;;
32236;SDS011;18726;44.732;10.550;2024-01-06T00:36:56;5.22;;;4.93;;
32236;SDS011;18726;44.732;10.550;2024-01-06T00:39:59;5.50;;;5.13;;
32236;SDS011;18726;44.732;10.550;2024-01-06T00:43:03;6.22;;;5.63;;
32236;SDS011;18726;44.732;10.550;2024-01-06T00:46:07;5.43;;;5.03;;
32236;SDS011;18726;44.732;10.550;2024-01-06T00:49:10;6.32;;;5.82;;
32236;SDS011;18726;44.732;10.550;2024-01-06T00:52:15;5.55;;;5.05;;
32236;SDS011;18726;44.732;10.550;2024-01-06T00:55:19;5.40;;;5.00;;
32236;SDS011;18726;44.732;10.550;2024-01-06T00:58:23;5.22;;;4.82;;
32236;SDS011;18726;44.732;10.550;2024-01-06T01:01:27;5.15;;;4.78;;
32236;SDS011;18726;44.732;10.550;2024-01-06T01:04:30;5.05;;;4.75;;
32236;SDS011;18726;44.732;10.550;2024-01-06T01:07:34;5.30;;;4.80;;
32236;SDS011;18726;44.732;10.550;2024-01-06T01:10:38;4.38;;;3.97;;
32236;SDS011;18726;44.732;10.550;2024-01-06T01:13:41;5.75;;;5.32;;
32236;SDS011;18726;44.732;10.550;2024-01-06T01:16:45;6.72;;;6.13;;
32236;SDS011;18726;44.732;10.550;2024-01-06T01:19:48;7.75;;;6.07;;
32236;SDS011;18726;44.732;10.550;2024-01-06T01:22:52;5.75;;;5.18;;
32236;SDS011;18726;44.732;10.550;2024-01-06T01:25:56;7.38;;;6.75;;
32236;SDS011;18726;44.732;10.550;2024-01-06T01:29:00;6.00;;;5.40;;
32236;SDS011;18726;44.732;10.550;2024-01-06T01:32:04;6.55;;;5.95;;
32236;SDS011;18726;44.732;10.550;2024-01-06T01:35:08;6.13;;;5.72;;
32236;SDS011;18726;44.732;10.550;2024-01-06T01:38:11;6.88;;;6.28;;
32236;SDS011;18726;44.732;10.550;2024-01-06T01:41:15;6.75;;;6.25;;
32236;SDS011;18726;44.732;10.550;2024-01-06T01:44:19;8.20;;;7.50;;
32236;SDS011;18726;44.732;10.550;2024-01-06T01:47:22;6.88;;;6.38;;
32236;SDS011;18726;44.732;10.550;2024-01-06T01:50:26;6.45;;;5.95;;
32236;SDS011;18726;44.732;10.550;2024-01-06T01:53:31;7.95;;;7.35;;
32236;SDS011;18726;44.732;10.550;2024-01-06T01:56:35;7.22;;;6.63;;
32236;SDS011;18726;44.732;10.550;2024-01-06T01:59:39;8.20;;;7.43;;
32236;SDS011;18726;44.732;10.550;2024-01-06T02:02:43;8.15;;;7.47;;
32236;SDS011;18726;44.732;10.550;2024-01-06T02:05:47;8.15;;;7.55;;
32236;SDS011;18726;44.732;10.550;2024-01-06T02:08:50;8.25;;;7.55;;
32236;SDS011;18726;44.732;10.550;2024-01-06T02:11:56;8.23;;;7.53;;
32236;SDS011;18726;44.732;10.550;2024-01-06T02:15:01;7.30;;;6.60;;
32236;SDS011;18726;44.732;10.550;2024-01-06T02:18:04;7.93;;;7.15;;
32236;SDS011;18726;44.732;10.550;2024-01-06T02:21:08;7.28;;;6.68;;
32236;SDS011;18726;44.732;10.550;2024-01-06T02:24:13;7.00;;;6.50;;
32236;SDS011;18726;44.732;10.550;2024-01-06T02:27:16;6.70;;;6.20;;
32236;SDS011;18726;44.732;10.550;2024-01-06T02:30:19;6.72;;;6.22;;
32236;SDS011;18726;44.732;10.550;2024-01-06T02:33:23;7.00;;;6.40;;
32236;SDS011;18726;44.732;10.550;2024-01-06T02:36:27;6.95;;;6.45;;
32236;SDS011;18726;44.732;10.550;2024-01-06T02:39:31;7.38;;;6.78;;
32236;SDS011;18726;44.732;10.550;2024-01-06T02:42:34;6.45;;;5.95;;
32236;SDS011;18726;44.732;10.550;2024-01-06T02:45:37;6.80;;;6.30;;
32236;SDS011;18726;44.732;10.550;2024-01-06T02:48:41;7.13;;;6.60;;
32236;SDS011;18726;44.732;10.550;2024-01-06T02:51:44;6.40;;;5.85;;
32236;SDS011;18726;44.732;10.550;2024-01-06T02:54:47;8.32;;;6.40;;
32236;SDS011;18726;44.732;10.550;2024-01-06T02:57:51;7.03;;;6.53;;
32236;SDS011;18726;44.732;10.550;2024-01-06T03:00:55;6.43;;;6.00;;
32236;SDS011;18726;44.732;10.550;2024-01-06T03:03:59;7.03;;;6.53;;
32236;SDS011;18726;44.732;10.550;2024-01-06T03:07:02;7.93;;;7.22;;
32236;SDS011;18726;44.732;10.550;2024-01-06T03:10:06;7.13;;;6.60;;
32236;SDS011;18726;44.732;10.550;2024-01-06T03:13:10;7.57;;;6.97;;
32236;SDS011;18726;44.732;10.550;2024-01-06T03:16:13;7.07;;;6.57;;
32236;SDS011;18726;44.732;10.550;2024-01-06T03:19:17;7.82;;;7.22;;
32236;SDS011;18726;44.732;10.550;2024-01-06T03:22:20;9.00;;;8.25;;
32236;SDS011;18726;44.732;10.550;2024-01-06T03:25:24;8.82;;;8.00;;
32236;SDS011;18726;44.732;10.550;2024-01-06T03:28:27;9.70;;;8.90;;
32236;SDS011;18726;44.732;10.550;2024-01-06T03:31:31;9.32;;;8.63;;
32236;SDS011;18726;44.732;10.550;2024-01-06T03:34:34;8.73;;;8.02;;
32236;SDS011;18726;44.732;10.550;2024-01-06T03:37:38;8.00;;;7.38;;
32236;SDS011;18726;44.732;10.550;2024-01-06T03:40:42;8.18;;;7.57;;
32236;SDS011;18726;44.732;10.550;2024-01-06T03:43:45;8.05;;;7.45;;
32236;SDS011;18726;44.732;10.550;2024-01-06T03:46:49;8.27;;;7.57;;
32236;SDS011;18726;44.732;10.550;2024-01-06T03:49:52;8.02;;;7.35;;
32236;SDS011;18726;44.732;10.550;2024-01-06T03:52:56;7.47;;;6.80;;
32236;SDS011;18726;44.732;10.550;2024-01-06T03:55:59;8.50;;;7.80;;
32236;SDS011;18726;44.732;10.550;2024-01-06T03:59:04;7.88;;;7.28;;
32236;SDS011;18726;44.732;10.550;2024-01-06T04:02:07;8.55;;;7.95;;
32236;SDS011;18726;44.732;10.550;2024-01-06T04:05:11;7.85;;;7.28;;
32236;SDS011;18726;44.732;10.550;2024-01-06T04:08:14;7.47;;;6.97;;
32236;SDS011;18726;44.732;10.550;2024-01-06T04:11:18;7.43;;;6.90;;
32236;SDS011;18726;44.732;10.550;2024-01-06T04:14:21;7.72;;;7.13;;
32236;SDS011;18726;44.732;10.550;2024-01-06T04:17:25;7.95;;;7.25;;
32236;SDS011;18726;44.732;10.550;2024-01-06T04:20:33;7.35;;;6.75;;
32236;SDS011;18726;44.732;10.550;2024-01-06T04:23:36;8.40;;;7.65;;
32236;SDS011;18726;44.732;10.550;2024-01-06T04:26:39;8.32;;;7.20;;
32236;SDS011;18726;44.732;10.550;2024-01-06T04:29:43;7.47;;;6.82;;
32236;SDS011;18726;44.732;10.550;2024-01-06T04:32:47;7.75;;;7.15;;
32236;SDS011;18726;44.732;10.550;2024-01-06T04:35:53;9.52;;;8.73;;
32236;SDS011;18726;44.732;10.550;2024-01-06T04:38:57;8.38;;;7.75;;
32236;SDS011;18726;44.732;10.550;2024-01-06T04:42:01;8.50;;;7.80;;
32236;SDS011;18726;44.732;10.550;2024-01-06T04:45:05;8.35;;;7.50;;
32236;SDS011;18726;44.732;10.550;2024-01-06T04:48:10;9.18;;;8.38;;
32236;SDS011;18726;44.732;10.550;2024-01-06T04:51:13;8.40;;;7.72;;
32236;SDS011;18726;44.732;10.550;2024-01-06T04:58:18;7.85;;;7.28;;
32236;SDS011;18726;44.732;10.550;2024-01-06T05:01:22;7.75;;;7.25;;
32236;SDS011;18726;44.732;10.550;2024-01-06T05:04:26;8.63;;;7.82;;
32236;SDS011;18726;44.732;10.550;2024-01-06T05:07:30;8.63;;;7.93;;
32236;SDS011;18726;44.732;10.550;2024-01-06T05:10:34;8.02;;;7.43;;
32236;SDS011;18726;44.732;10.550;2024-01-06T05:13:38;8.98;;;8.27;;
32236;SDS011;18726;44.732;10.550;2024-01-06T05:16:41;9.43;;;8.65;;
32236;SDS011;18726;44.732;10.550;2024-01-06T05:19:45;8.90;;;8.20;;
32236;SDS011;18726;44.732;10.550;2024-01-06T05:22:49;8.25;;;7.63;;
32236;SDS011;18726;44.732;10.550;2024-01-06T05:25:52;8.73;;;8.02;;
32236;SDS011;18726;44.732;10.550;2024-01-06T05:28:56;8.68;;;8.07;;
32236;SDS011;18726;44.732;10.550;2024-01-06T05:32:00;8.52;;;7.85;;
32236;SDS011;18726;44.732;10.550;2024-01-06T05:35:04;7.35;;;6.75;;
32236;SDS011;18726;44.732;10.550;2024-01-06T05:38:08;9.98;;;9.18;;
32236;SDS011;18726;44.732;10.550;2024-01-06T05:41:11;9.05;;;8.35;;
32236;SDS011;18726;44.732;10.550;2024-01-06T05:44:15;8.00;;;7.40;;
32236;SDS011;18726;44.732;10.550;2024-01-06T05:47:19;8.80;;;8.10;;
32236;SDS011;18726;44.732;10.550;2024-01-06T05:50:22;9.57;;;8.70;;
32236;SDS011;18726;44.732;10.550;2024-01-06T05:53:26;9.30;;;8.50;;
32236;SDS011;18726;44.732;10.550;2024-01-06T05:56:30;9.68;;;8.85;;
32236;SDS011;18726;44.732;10.550;2024-01-06T05:59:34;10.60;;;9.75;;
32236;SDS011;18726;44.732;10.550;2024-01-06T06:02:37;8.95;;;8.15;;
32236;SDS011;18726;44.732;10.550;2024-01-06T06:05:42;8.68;;;7.97;;
32236;SDS011;18726;44.732;10.550;2024-01-06T06:08:46;8.52;;;7.70;;
32236;SDS011;18726;44.732;10.550;2024-01-06T06:11:51;8.95;;;8.23;;
32236;SDS011;18726;44.732;10.550;2024-01-06T06:14:54;8.57;;;7.88;;
32236;SDS011;18726;44.732;10.550;2024-01-06T06:17:59;10.10;;;9.23;;
32236;SDS011;18726;44.732;10.550;2024-01-06T06:21:04;9.85;;;8.95;;
32236;SDS011;18726;44.732;10.550;2024-01-06T06:24:07;10.00;;;9.20;;
32236;SDS011;18726;44.732;10.550;2024-01-06T06:27:11;9.05;;;8.35;;
32236;SDS011;18726;44.732;10.550;2024-01-06T06:30:15;9.48;;;8.60;;
32236;SDS011;18726;44.732;10.550;2024-01-06T06:33:18;8.95;;;8.18;;
32236;SDS011;18726;44.732;10.550;2024-01-06T06:36:22;9.02;;;8.32;;
32236;SDS011;18726;44.732;10.550;2024-01-06T06:39:26;9.55;;;8.75;;
32236;SDS011;18726;44.732;10.550;2024-01-06T06:42:30;9.25;;;8.55;;
32236;SDS011;18726;44.732;10.550;2024-01-06T06:45:34;9.75;;;8.90;;
32236;SDS011;18726;44.732;10.550;2024-01-06T06:48:37;9.07;;;8.25;;
32236;SDS011;18726;44.732;10.550;2024-01-06T06:51:41;8.05;;;7.32;;
32236;SDS011;18726;44.732;10.550;2024-01-06T06:54:50;9.68;;;8.75;;
32236;SDS011;18726;44.732;10.550;2024-01-06T06:57:56;9.55;;;8.70;;
32236;SDS011;18726;44.732;10.550;2024-01-06T07:01:00;8.40;;;7.70;;
32236;SDS011;18726;44.732;10.550;2024-01-06T07:04:04;9.02;;;8.23;;
32236;SDS011;18726;44.732;10.550;2024-01-06T07:07:07;7.50;;;6.90;;
32236;SDS011;18726;44.732;10.550;2024-01-06T07:10:11;8.48;;;7.80;;
32236;SDS011;18726;44.732;10.550;2024-01-06T07:13:15;8.75;;;7.97;;
32236;SDS011;18726;44.732;10.550;2024-01-06T07:16:18;8.15;;;7.53;;
32236;SDS011;18726;44.732;10.550;2024-01-06T07:19:22;8.10;;;7.50;;
32236;SDS011;18726;44.732;10.550;2024-01-06T07:22:25;8.98;;;8.27;;
32236;SDS011;18726;44.732;10.550;2024-01-06T07:25:29;8.75;;;7.95;;
32236;SDS011;18726;44.732;10.550;2024-01-06T07:28:33;8.23;;;7.53;;
32236;SDS011;18726;44.732;10.550;2024-01-06T07:31:37;8.70;;;7.95;;
32236;SDS011;18726;44.732;10.550;2024-01-06T07:34:40;8.13;;;7.40;;
32236;SDS011;18726;44.732;10.550;2024-01-06T07:37:43;8.35;;;7.65;;
32236;SDS011;18726;44.732;10.550;2024-01-06T07:40:47;9.15;;;8.30;;
32236;SDS011;18726;44.732;10.550;2024-01-06T07:43:51;8.80;;;8.10;;
32236;SDS011;18726;44.732;10.550;2024-01-06T07:46:54;10.18;;;9.27;;
32236;SDS011;18726;44.732;10.550;2024-01-06T07:49:58;10.00;;;9.02;;
32236;SDS011;18726;44.732;10.550;2024-01-06T07:53:01;9.13;;;8.32;;
32236;SDS011;18726;44.732;10.550;2024-01-06T07:56:05;9.18;;;8.48;;
32236;SDS011;18726;44.732;10.550;2024-01-06T07:59:09;9.57;;;8.70;;
32236;SDS011;18726;44.732;10.550;2024-01-06T08:02:14;10.23;;;9.32;;
32236;SDS011;18726;44.732;10.550;2024-01-06T08:05:18;10.32;;;9.43;;
32236;SDS011;18726;44.732;10.550;2024-01-06T08:08:22;10.15;;;9.27;;
32236;SDS011;18726;44.732;10.550;2024-01-06T08:11:26;8.95;;;8.15;;
32236;SDS011;18726;44.732;10.550;2024-01-06T08:14:30;9.10;;;8.30;;
32236;SDS011;18726;44.732;10.550;2024-01-06T08:17:33;8.95;;;8.25;;
32236;SDS011;18726;44.732;10.550;2024-01-06T08:20:37;8.88;;;8.13;;
32236;SDS011;18726;44.732;10.550;2024-01-06T08:23:40;10.93;;;10.00;;
32236;SDS011;18726;44.732;10.550;2024-01-06T08:26:44;11.88;;;10.80;;
32236;SDS011;18726;44.732;10.550;2024-01-06T08:29:48;12.43;;;11.35;;
32236;SDS011;18726;44.732;10.550;2024-01-06T08:32:51;13.88;;;12.13;;
32236;SDS011;18726;44.732;10.550;2024-01-06T08:35:55;16.80;;;15.05;;
32236;SDS011;18726;44.732;10.550;2024-01-06T08:38:59;34.17;;;30.35;;
32236;SDS011;18726;44.732;10.550;2024-01-06T08:42:03;101.35;;;66.18;;
32236;SDS011;18726;44.732;10.550;2024-01-06T08:45:07;110.47;;;81.32;;
32236;SDS011;18726;44.732;10.550;2024-01-06T08:48:10;72.03;;;64.13;;
32236;SDS011;18726;44.732;10.550;2024-01-06T08:51:15;46.67;;;42.05;;
32236;SDS011;18726;44.732;10.550;2024-01-06T08:54:21;64.28;;;55.83;;
32236;SDS011;18726;44.732;10.550;2024-01-06T08:57:25;40.55;;;34.15;;
32236;SDS011;18726;44.732;10.550;2024-01-06T09:00:29;49.22;;;38.65;;
32236;SDS011;18726;44.732;10.550;2024-01-06T09:03:33;59.05;;;46.15;;
32236;SDS011;18726;44.732;10.550;2024-01-06T09:06:36;26.80;;;24.08;;
32236;SDS011;18726;44.732;10.550;2024-01-06T09:09:41;39.67;;;35.58;;
32236;SDS011;18726;44.732;10.550;2024-01-06T09:12:45;25.10;;;22.60;;
32236;SDS011;18726;44.732;10.550;2024-01-06T09:15:48;21.38;;;19.40;;
32236;SDS011;18726;44.732;10.550;2024-01-06T09:18:52;15.88;;;14.25;;
32236;SDS011;18726;44.732;10.550;2024-01-06T09:21:56;20.30;;;18.33;;
32236;SDS011;18726;44.732;10.550;2024-01-06T09:25:00;15.95;;;14.48;;
32236;SDS011;18726;44.732;10.550;2024-01-06T09:28:04;15.13;;;13.82;;
32236;SDS011;18726;44.732;10.550;2024-01-06T09:31:07;18.05;;;16.45;;
32236;SDS011;18726;44.732;10.550;2024-01-06T09:34:11;15.85;;;14.45;;
32236;SDS011;18726;44.732;10.550;2024-01-06T09:37:15;15.27;;;13.88;;
32236;SDS011;18726;44.732;10.550;2024-01-06T09:40:23;12.93;;;11.82;;
32236;SDS011;18726;44.732;10.550;2024-01-06T09:43:27;13.07;;;11.88;;
32236;SDS011;18726;44.732;10.550;2024-01-06T09:46:33;13.70;;;12.50;;
32236;SDS011;18726;44.732;10.550;2024-01-06T09:49:39;13.38;;;12.25;;
32236;SDS011;18726;44.732;10.550;2024-01-06T09:52:45;66.55;;;35.20;;
32236;SDS011;18726;44.732;10.550;2024-01-06T09:55:55;96.57;;;42.42;;
32236;SDS011;18726;44.732;10.550;2024-01-06T09:58:59;203.88;;;76.03;;
32236;SDS011;18726;44.732;10.550;2024-01-06T10:02:03;87.07;;;36.03;;
32236;SDS011;18726;44.732;10.550;2024-01-06T10:05:08;116.95;;;45.50;;
32236;SDS011;18726;44.732;10.550;2024-01-06T10:08:13;70.88;;;31.83;;
32236;SDS011;18726;44.732;10.550;2024-01-06T10:11:17;89.50;;;35.85;;
32236;SDS011;18726;44.732;10.550;2024-01-06T10:14:24;69.85;;;29.75;;
32236;SDS011;18726;44.732;10.550;2024-01-06T10:17:28;71.35;;;33.30;;
32236;SDS011;18726;44.732;10.550;2024-01-06T10:20:31;44.03;;;22.73;;
32236;SDS011;18726;44.732;10.550;2024-01-06T10:23:35;51.38;;;26.67;;
32236;SDS011;18726;44.732;10.550;2024-01-06T10:26:40;76.13;;;29.83;;
32236;SDS011;18726;44.732;10.550;2024-01-06T10:29:44;127.78;;;51.75;;
32236;SDS011;18726;44.732;10.550;2024-01-06T10:32:47;127.22;;;47.28;;
32236;SDS011;18726;44.732;10.550;2024-01-06T10:35:53;104.80;;;43.65;;
32236;SDS011;18726;44.732;10.550;2024-01-06T10:38:59;103.65;;;46.83;;
32236;SDS011;18726;44.732;10.550;2024-01-06T10:42:06;78.13;;;34.95;;
32236;SDS011;18726;44.732;10.550;2024-01-06T10:45:11;56.40;;;31.92;;
32236;SDS011;18726;44.732;10.550;2024-01-06T10:48:16;71.38;;;31.55;;
32236;SDS011;18726;44.732;10.550;2024-01-06T10:51:21;23.52;;;17.30;;
32236;SDS011;18726;44.732;10.550;2024-01-06T10:54:26;33.05;;;25.08;;
32236;SDS011;18726;44.732;10.550;2024-01-06T10:57:31;26.23;;;20.30;;
32236;SDS011;18726;44.732;10.550;2024-01-06T11:00:35;24.52;;;16.67;;
32236;SDS011;18726;44.732;10.550;2024-01-06T11:03:39;17.63;;;15.43;;
32236;SDS011;18726;44.732;10.550;2024-01-06T11:06:43;17.20;;;15.32;;
32236;SDS011;18726;44.732;10.550;2024-01-06T11:10:02;23.00;;;16.50;;
32236;SDS011;18726;44.732;10.550;2024-01-06T11:24:19;18.35;;;15.95;;
32236;SDS011;18726;44.732;10.550;2024-01-06T11:30:31;17.38;;;14.77;;
32236;SDS011;18726;44.732;10.550;2024-01-06T11:33:44;14.48;;;12.98;;
32236;SDS011;18726;44.732;10.550;2024-01-06T11:36:51;13.73;;;12.43;;
32236;SDS011;18726;44.732;10.550;2024-01-06T11:39:54;15.65;;;14.13;;
32236;SDS011;18726;44.732;10.550;2024-01-06T11:43:10;14.93;;;13.45;;
32236;SDS011;18726;44.732;10.550;2024-01-06T11:46:15;12.85;;;11.75;;
32236;SDS011;18726;44.732;10.550;2024-01-06T11:49:19;14.93;;;13.40;;
32236;SDS011;18726;44.732;10.550;2024-01-06T11:52:24;13.73;;;12.40;;
32236;SDS011;18726;44.732;10.550;2024-01-06T11:55:28;13.63;;;12.38;;
32236;SDS011;18726;44.732;10.550;2024-01-06T11:58:34;13.30;;;12.10;;
32236;SDS011;18726;44.732;10.550;2024-01-06T12:01:38;13.73;;;12.32;;
32236;SDS011;18726;44.732;10.550;2024-01-06T12:04:43;13.10;;;11.90;;
32236;SDS011;18726;44.732;10.550;2024-01-06T12:07:55;41.17;;;26.98;;
32236;SDS011;18726;44.732;10.550;2024-01-06T12:11:02;69.93;;;32.33;;
32236;SDS011;18726;44.732;10.550;2024-01-06T12:14:06;92.47;;;41.90;;
32236;SDS011;18726;44.732;10.550;2024-01-06T12:17:11;85.70;;;43.90;;
32236;SDS011;18726;44.732;10.550;2024-01-06T12:20:16;103.35;;;44.85;;
32236;SDS011;18726;44.732;10.550;2024-01-06T12:23:24;201.80;;;79.07;;
32236;SDS011;18726;44.732;10.550;2024-01-06T12:26:29;100.20;;;40.67;;
32236;SDS011;18726;44.732;10.550;2024-01-06T12:29:32;61.75;;;30.40;;
32236;SDS011;18726;44.732;10.550;2024-01-06T12:32:36;77.93;;;35.17;;
32236;SDS011;18726;44.732;10.550;2024-01-06T12:35:39;82.25;;;36.95;;
32236;SDS011;18726;44.732;10.550;2024-01-06T12:38:44;135.23;;;56.22;;
32236;SDS011;18726;44.732;10.550;2024-01-06T12:41:50;47.17;;;27.05;;
32236;SDS011;18726;44.732;10.550;2024-01-06T12:44:54;41.72;;;21.27;;
32236;SDS011;18726;44.732;10.550;2024-01-06T12:47:57;70.25;;;32.33;;
32236;SDS011;18726;44.732;10.550;2024-01-06T12:51:01;145.65;;;59.92;;
32236;SDS011;18726;44.732;10.550;2024-01-06T12:54:04;103.72;;;46.63;;
32236;SDS011;18726;44.732;10.550;2024-01-06T12:57:08;99.85;;;44.40;;
32236;SDS011;18726;44.732;10.550;2024-01-06T13:00:12;77.47;;;33.97;;
32236;SDS011;18726;44.732;10.550;2024-01-06T13:03:17;35.60;;;23.05;;
32236;SDS011;18726;44.732;10.550;2024-01-06T13:06:21;58.58;;;30.42;;
32236;SDS011;18726;44.732;10.550;2024-01-06T13:09:25;22.20;;;15.75;;
32236;SDS011;18726;44.732;10.550;2024-01-06T13:12:29;56.92;;;35.08;;
32236;SDS011;18726;44.732;10.550;2024-01-06T13:15:33;28.10;;;16.35;;
32236;SDS011;18726;44.732;10.550;2024-01-06T13:18:37;67.70;;;32.60;;
32236;SDS011;18726;44.732;10.550;2024-01-06T13:21:41;19.23;;;16.17;;
32236;SDS011;18726;44.732;10.550;2024-01-06T13:24:44;62.60;;;44.05;;
32236;SDS011;18726;44.732;10.550;2024-01-06T13:27:48;135.55;;;80.30;;
32236;SDS011;18726;44.732;10.550;2024-01-06T13:30:51;87.28;;;60.33;;
32236;SDS011;18726;44.732;10.550;2024-01-06T13:33:57;17.60;;;15.80;;
32236;SDS011;18726;44.732;10.550;2024-01-06T13:37:00;19.83;;;18.17;;
32236;SDS011;18726;44.732;10.550;2024-01-06T13:40:04;11.23;;;10.23;;
32236;SDS011;18726;44.732;10.550;2024-01-06T13:43:10;8.95;;;8.25;;
32236;SDS011;18726;44.732;10.550;2024-01-06T13:46:18;9.10;;;8.32;;
32236;SDS011;18726;44.732;10.550;2024-01-06T13:49:22;10.32;;;9.52;;
32236;SDS011;18726;44.732;10.550;2024-01-06T13:52:27;8.55;;;7.90;;
32236;SDS011;18726;44.732;10.550;2024-01-06T13:55:30;8.25;;;7.47;;
32236;SDS011;18726;44.732;10.550;2024-01-06T13:58:34;8.27;;;7.57;;
32236;SDS011;18726;44.732;10.550;2024-01-06T14:01:39;8.15;;;7.55;;
32236;SDS011;18726;44.732;10.550;2024-01-06T14:04:43;7.05;;;6.45;;
32236;SDS011;18726;44.732;10.550;2024-01-06T14:07:47;8.38;;;7.68;;
32236;SDS011;18726;44.732;10.550;2024-01-06T14:10:53;7.53;;;6.93;;
32236;SDS011;18726;44.732;10.550;2024-01-06T14:14:00;7.63;;;6.95;;
32236;SDS011;18726;44.732;10.550;2024-01-06T14:17:03;7.93;;;7.32;;
32236;SDS011;18726;44.732;10.550;2024-01-06T14:20:07;7.68;;;7.00;;
32236;SDS011;18726;44.732;10.550;2024-01-06T14:23:13;9.10;;;8.35;;
32236;SDS011;18726;44.732;10.550;2024-01-06T14:26:20;8.00;;;7.40;;
32236;SDS011;18726;44.732;10.550;2024-01-06T14:29:24;7.50;;;7.00;;
32236;SDS011;18726;44.732;10.550;2024-01-06T14:32:30;7.93;;;7.32;;
32236;SDS011;18726;44.732;10.550;2024-01-06T14:35:39;8.27;;;7.60;;
32236;SDS011;18726;44.732;10.550;2024-01-06T14:38:42;8.07;;;7.43;;
32236;SDS011;18726;44.732;10.550;2024-01-06T14:41:45;8.57;;;7.88;;
32236;SDS011;18726;44.732;10.550;2024-01-06T14:44:49;9.15;;;8.25;;
32236;SDS011;18726;44.732;10.550;2024-01-06T14:47:52;9.48;;;8.77;;
32236;SDS011;18726;44.732;10.550;2024-01-06T14:50:59;9.73;;;8.85;;
32236;SDS011;18726;44.732;10.550;2024-01-06T14:54:02;10.15;;;9.35;;
32236;SDS011;18726;44.732;10.550;2024-01-06T14:57:06;9.30;;;8.52;;
32236;SDS011;18726;44.732;10.550;2024-01-06T15:00:11;9.07;;;8.15;;
32236;SDS011;18726;44.732;10.550;2024-01-06T15:03:15;8.63;;;7.93;;
32236;SDS011;18726;44.732;10.550;2024-01-06T15:06:20;9.88;;;8.18;;
32236;SDS011;18726;44.732;10.550;2024-01-06T15:09:24;10.60;;;9.45;;
32236;SDS011;18726;44.732;10.550;2024-01-06T15:12:29;10.30;;;9.50;;
32236;SDS011;18726;44.732;10.550;2024-01-06T15:15:33;10.00;;;9.05;;
32236;SDS011;18726;44.732;10.550;2024-01-06T15:18:40;9.60;;;8.82;;
32236;SDS011;18726;44.732;10.550;2024-01-06T15:21:43;9.25;;;8.48;;
32236;SDS011;18726;44.732;10.550;2024-01-06T15:29:01;10.30;;;9.43;;
32236;SDS011;18726;44.732;10.550;2024-01-06T15:32:05;10.75;;;9.85;;
32236;SDS011;18726;44.732;10.550;2024-01-06T15:35:10;10.90;;;9.88;;
32236;SDS011;18726;44.732;10.550;2024-01-06T15:38:14;11.40;;;10.48;;
32236;SDS011;18726;44.732;10.550;2024-01-06T15:41:18;12.32;;;11.25;;
32236;SDS011;18726;44.732;10.550;2024-01-06T15:44:22;10.85;;;9.80;;
32236;SDS011;18726;44.732;10.550;2024-01-06T15:47:25;9.27;;;8.57;;
32236;SDS011;18726;44.732;10.550;2024-01-06T15:50:28;9.57;;;8.77;;
32236;SDS011;18726;44.732;10.550;2024-01-06T15:53:32;11.52;;;10.48;;
32236;SDS011;18726;44.732;10.550;2024-01-06T15:56:36;11.55;;;10.55;;
32236;SDS011;18726;44.732;10.550;2024-01-06T15:59:40;12.20;;;11.10;;
32236;SDS011;18726;44.732;10.550;2024-01-06T16:02:43;10.77;;;9.75;;
32236;SDS011;18726;44.732;10.550;2024-01-06T16:05:47;12.05;;;11.05;;
32236;SDS011;18726;44.732;10.550;2024-01-06T16:08:51;21.95;;;19.52;;
32236;SDS011;18726;44.732;10.550;2024-01-06T16:11:54;64.65;;;42.20;;
32236;SDS011;18726;44.732;10.550;2024-01-06T16:15:00;59.72;;;40.72;;
32236;SDS011;18726;44.732;10.550;2024-01-06T16:18:04;34.65;;;30.33;;
32236;SDS011;18726;44.732;10.550;2024-01-06T16:21:09;21.23;;;19.33;;
32236;SDS011;18726;44.732;10.550;2024-01-06T16:24:12;17.67;;;15.98;;
32236;SDS011;18726;44.732;10.550;2024-01-06T16:27:16;29.92;;;26.38;;
32236;SDS011;18726;44.732;10.550;2024-01-06T16:30:19;22.15;;;19.95;;
32236;SDS011;18726;44.732;10.550;2024-01-06T16:33:24;32.97;;;29.83;;
32236;SDS011;18726;44.732;10.550;2024-01-06T16:36:28;19.30;;;17.50;;
32236;SDS011;18726;44.732;10.550;2024-01-06T16:39:31;16.38;;;14.88;;
32236;SDS011;18726;44.732;10.550;2024-01-06T16:42:34;15.65;;;14.30;;
32236;SDS011;18726;44.732;10.550;2024-01-06T16:45:38;18.45;;;16.52;;
32236;SDS011;18726;44.732;10.550;2024-01-06T16:48:42;23.58;;;21.27;;
32236;SDS011;18726;44.732;10.550;2024-01-06T16:51:46;17.00;;;15.40;;
32236;SDS011;18726;44.732;10.550;2024-01-06T16:54:50;13.55;;;12.32;;
32236;SDS011;18726;44.732;10.550;2024-01-06T16:57:53;14.35;;;13.05;;
32236;SDS011;18726;44.732;10.550;2024-01-06T17:01:02;17.05;;;15.45;;
32236;SDS011;18726;44.732;10.550;2024-01-06T17:04:06;14.13;;;12.73;;
32236;SDS011;18726;44.732;10.550;2024-01-06T17:07:11;15.48;;;14.00;;
32236;SDS011;18726;44.732;10.550;2024-01-06T17:10:15;15.93;;;14.43;;
32236;SDS011;18726;44.732;10.550;2024-01-06T17:13:19;16.05;;;14.55;;
32236;SDS011;18726;44.732;10.550;2024-01-06T17:16:25;15.18;;;13.68;;
32236;SDS011;18726;44.732;10.550;2024-01-06T17:19:28;15.43;;;13.90;;
32236;SDS011;18726;44.732;10.550;2024-01-06T17:22:32;15.88;;;14.45;;
32236;SDS011;18726;44.732;10.550;2024-01-06T17:25:35;17.88;;;16.10;;
32236;SDS011;18726;44.732;10.550;2024-01-06T17:28:39;17.17;;;15.57;;
32236;SDS011;18726;44.732;10.550;2024-01-06T17:31:43;17.27;;;15.57;;
32236;SDS011;18726;44.732;10.550;2024-01-06T17:34:47;17.73;;;16.10;;
32236;SDS011;18726;44.732;10.550;2024-01-06T17:37:51;17.30;;;15.50;;
32236;SDS011;18726;44.732;10.550;2024-01-06T17:40:54;18.13;;;16.42;;
32236;SDS011;18726;44.732;10.550;2024-01-06T17:43:58;17.98;;;16.27;;
32236;SDS011;18726;44.732;10.550;2024-01-06T17:47:01;17.77;;;16.10;;
32236;SDS011;18726;44.732;10.550;2024-01-06T17:50:05;18.17;;;16.48;;
32236;SDS011;18726;44.732;10.550;2024-01-06T17:53:09;17.55;;;15.95;;
32236;SDS011;18726;44.732;10.550;2024-01-06T17:56:13;18.08;;;16.23;;
32236;SDS011;18726;44.732;10.550;2024-01-06T17:59:17;16.92;;;15.32;;
32236;SDS011;18726;44.732;10.550;2024-01-06T18:02:24;17.45;;;15.80;;
32236;SDS011;18726;44.732;10.550;2024-01-06T18:05:38;16.80;;;15.30;;
32236;SDS011;18726;44.732;10.550;2024-01-06T18:08:45;19.70;;;15.55;;
32236;SDS011;18726;44.732;10.550;2024-01-06T18:11:48;16.45;;;14.90;;
32236;SDS011;18726;44.732;10.550;2024-01-06T18:14:54;16.88;;;15.20;;
32236;SDS011;18726;44.732;10.550;2024-01-06T18:18:02;19.50;;;15.95;;
32236;SDS011;18726;44.732;10.550;2024-01-06T18:21:06;17.58;;;15.23;;